sensor_id;sensor_type;location;lat;lon;timestamp;P1;durP1;ratioP1;P2;durP2;ratioP2
13071;SDS011;6602;58.934;11.166;2023-02-22T00:03:24;0.80;;;0.50;;
13071;SDS011;6602;58.934;11.166;2023-02-22T00:08:46;0.63;;;0.63;;
13071;SDS011;6602;58.934;11.166;2023-02-22T00:13:54;0.50;;;0.50;;
13071;SDS011;6602;58.934;11.166;2023-02-22T00:19:00;0.50;;;0.50;;
13071;SDS011;6602;58.934;11.166;2023-02-22T00:24:16;0.90;;;0.80;;
13071;SDS011;6602;58.934;11.166;2023-02-22T00:29:25;0.70;;;0.70;;
13071;SDS011;6602;58.934;11.166;2023-02-22T00:34:29;0.97;;;0.80;;
13071;SDS011;6602;58.934;11.166;2023-02-22T00:39:36;1.37;;;0.90;;
13071;SDS011;6602;58.934;11.166;2023-02-22T00:44:55;0.87;;;0.70;;
13071;SDS011;6602;58.934;11.166;2023-02-22T00:50:02;0.80;;;0.70;;
13071;SDS011;6602;58.934;11.166;2023-02-22T00:55:33;0.70;;;0.70;;
13071;SDS011;6602;58.934;11.166;2023-02-22T01:00:55;0.70;;;0.70;;
13071;SDS011;6602;58.934;11.166;2023-02-22T01:06:18;1.10;;;0.70;;
13071;SDS011;6602;58.934;11.166;2023-02-22T01:11:39;0.60;;;0.60;;
13071;SDS011;6602;58.934;11.166;2023-02-22T01:17:03;1.10;;;0.67;;
13071;SDS011;6602;58.934;11.166;2023-02-22T01:22:23;1.10;;;0.80;;
13071;SDS011;6602;58.934;11.166;2023-02-22T01:27:43;0.80;;;0.80;;
13071;SDS011;6602;58.934;11.166;2023-02-22T01:33:03;1.50;;;0.80;;
13071;SDS011;6602;58.934;11.166;2023-02-22T01:38:25;0.80;;;0.80;;
13071;SDS011;6602;58.934;11.166;2023-02-22T01:43:44;1.00;;;0.80;;
13071;SDS011;6602;58.934;11.166;2023-02-22T01:49:04;1.00;;;0.90;;
13071;SDS011;6602;58.934;11.166;2023-02-22T01:54:24;0.47;;;0.47;;
13071;SDS011;6602;58.934;11.166;2023-02-22T01:59:58;1.20;;;0.80;;
13071;SDS011;6602;58.934;11.166;2023-02-22T02:05:27;0.90;;;0.70;;
13071;SDS011;6602;58.934;11.166;2023-02-22T02:10:30;1.50;;;0.90;;
13071;SDS011;6602;58.934;11.166;2023-02-22T02:15:32;0.90;;;0.80;;
13071;SDS011;6602;58.934;11.166;2023-02-22T02:26:31;1.13;;;0.73;;
13071;SDS011;6602;58.934;11.166;2023-02-22T02:37:56;1.23;;;0.90;;
13071;SDS011;6602;58.934;11.166;2023-02-22T02:48:55;0.80;;;0.80;;
13071;SDS011;6602;58.934;11.166;2023-02-22T02:54:18;1.43;;;0.93;;
13071;SDS011;6602;58.934;11.166;2023-02-22T02:59:26;1.43;;;1.00;;
13071;SDS011;6602;58.934;11.166;2023-02-22T03:04:47;1.40;;;1.00;;
13071;SDS011;6602;58.934;11.166;2023-02-22T03:10:37;0.83;;;0.70;;
13071;SDS011;6602;58.934;11.166;2023-02-22T03:21:23;1.20;;;0.93;;
13071;SDS011;6602;58.934;11.166;2023-02-22T03:26:50;1.23;;;1.00;;
13071;SDS011;6602;58.934;11.166;2023-02-22T03:32:19;1.30;;;0.80;;
13071;SDS011;6602;58.934;11.166;2023-02-22T03:37:43;1.10;;;0.90;;
13071;SDS011;6602;58.934;11.166;2023-02-22T03:43:09;1.97;;;1.10;;
13071;SDS011;6602;58.934;11.166;2023-02-22T03:54:01;2.10;;;1.30;;
13071;SDS011;6602;58.934;11.166;2023-02-22T03:59:07;1.10;;;0.70;;
13071;SDS011;6602;58.934;11.166;2023-02-22T04:04:10;0.93;;;0.90;;
13071;SDS011;6602;58.934;11.166;2023-02-22T04:09:15;2.10;;;1.10;;
13071;SDS011;6602;58.934;11.166;2023-02-22T04:14:37;2.93;;;1.07;;
13071;SDS011;6602;58.934;11.166;2023-02-22T04:19:58;1.03;;;0.93;;
13071;SDS011;6602;58.934;11.166;2023-02-22T04:25:18;0.90;;;0.70;;
13071;SDS011;6602;58.934;11.166;2023-02-22T04:30:23;1.53;;;0.90;;
13071;SDS011;6602;58.934;11.166;2023-02-22T04:35:40;2.93;;;0.80;;
13071;SDS011;6602;58.934;11.166;2023-02-22T04:41:00;0.83;;;0.80;;
13071;SDS011;6602;58.934;11.166;2023-02-22T04:46:12;2.30;;;1.10;;
13071;SDS011;6602;58.934;11.166;2023-02-22T04:51:33;1.50;;;1.10;;
13071;SDS011;6602;58.934;11.166;2023-02-22T04:56:55;1.37;;;1.20;;
13071;SDS011;6602;58.934;11.166;2023-02-22T05:02:17;0.97;;;0.80;;
13071;SDS011;6602;58.934;11.166;2023-02-22T05:07:37;1.43;;;1.13;;
13071;SDS011;6602;58.934;11.166;2023-02-22T05:12:57;2.73;;;1.23;;
13071;SDS011;6602;58.934;11.166;2023-02-22T05:18:16;1.00;;;0.93;;
13071;SDS011;6602;58.934;11.166;2023-02-22T05:23:36;1.33;;;1.00;;
13071;SDS011;6602;58.934;11.166;2023-02-22T05:28:43;1.13;;;0.90;;
13071;SDS011;6602;58.934;11.166;2023-02-22T05:34:05;6.83;;;1.10;;
13071;SDS011;6602;58.934;11.166;2023-02-22T05:39:15;1.17;;;0.90;;
13071;SDS011;6602;58.934;11.166;2023-02-22T05:44:19;1.90;;;1.30;;
13071;SDS011;6602;58.934;11.166;2023-02-22T05:49:32;0.80;;;0.80;;
13071;SDS011;6602;58.934;11.166;2023-02-22T05:54:53;2.27;;;1.00;;
13071;SDS011;6602;58.934;11.166;2023-02-22T06:00:20;5.53;;;1.43;;
13071;SDS011;6602;58.934;11.166;2023-02-22T06:05:45;1.90;;;1.30;;
13071;SDS011;6602;58.934;11.166;2023-02-22T06:11:05;2.73;;;1.40;;
13071;SDS011;6602;58.934;11.166;2023-02-22T06:16:29;3.03;;;1.43;;
13071;SDS011;6602;58.934;11.166;2023-02-22T06:21:53;5.07;;;1.30;;
13071;SDS011;6602;58.934;11.166;2023-02-22T06:27:14;2.07;;;1.37;;
13071;SDS011;6602;58.934;11.166;2023-02-22T06:32:33;1.93;;;0.93;;
13071;SDS011;6602;58.934;11.166;2023-02-22T06:37:53;2.80;;;1.10;;
13071;SDS011;6602;58.934;11.166;2023-02-22T06:43:03;1.97;;;1.40;;
13071;SDS011;6602;58.934;11.166;2023-02-22T06:48:23;1.50;;;1.10;;
13071;SDS011;6602;58.934;11.166;2023-02-22T06:53:43;3.30;;;1.20;;
13071;SDS011;6602;58.934;11.166;2023-02-22T06:59:03;1.90;;;1.03;;
13071;SDS011;6602;58.934;11.166;2023-02-22T07:04:22;1.10;;;0.90;;
13071;SDS011;6602;58.934;11.166;2023-02-22T07:09:44;1.20;;;1.10;;
13071;SDS011;6602;58.934;11.166;2023-02-22T07:15:05;1.10;;;0.87;;
13071;SDS011;6602;58.934;11.166;2023-02-22T07:20:12;1.07;;;0.97;;
13071;SDS011;6602;58.934;11.166;2023-02-22T07:25:44;1.33;;;0.93;;
13071;SDS011;6602;58.934;11.166;2023-02-22T07:31:04;1.00;;;0.90;;
13071;SDS011;6602;58.934;11.166;2023-02-22T07:36:08;1.40;;;0.90;;
13071;SDS011;6602;58.934;11.166;2023-02-22T07:41:24;3.20;;;0.90;;
13071;SDS011;6602;58.934;11.166;2023-02-22T07:46:32;1.60;;;1.30;;
13071;SDS011;6602;58.934;11.166;2023-02-22T07:51:44;1.43;;;1.00;;
13071;SDS011;6602;58.934;11.166;2023-02-22T07:57:00;2.87;;;1.43;;
13071;SDS011;6602;58.934;11.166;2023-02-22T08:02:21;1.73;;;1.10;;
13071;SDS011;6602;58.934;11.166;2023-02-22T08:07:39;1.77;;;1.10;;
13071;SDS011;6602;58.934;11.166;2023-02-22T08:18:24;2.90;;;1.00;;
13071;SDS011;6602;58.934;11.166;2023-02-22T08:23:25;0.90;;;0.80;;
13071;SDS011;6602;58.934;11.166;2023-02-22T08:28:27;1.93;;;1.20;;
13071;SDS011;6602;58.934;11.166;2023-02-22T08:33:37;2.37;;;1.00;;
13071;SDS011;6602;58.934;11.166;2023-02-22T08:38:44;3.13;;;1.10;;
13071;SDS011;6602;58.934;11.166;2023-02-22T08:43:51;1.50;;;1.10;;
13071;SDS011;6602;58.934;11.166;2023-02-22T08:48:56;2.50;;;1.10;;
13071;SDS011;6602;58.934;11.166;2023-02-22T08:54:17;6.97;;;1.53;;
13071;SDS011;6602;58.934;11.166;2023-02-22T08:59:18;2.37;;;1.00;;
13071;SDS011;6602;58.934;11.166;2023-02-22T09:04:21;1.07;;;0.80;;
13071;SDS011;6602;58.934;11.166;2023-02-22T09:09:24;1.60;;;0.90;;
13071;SDS011;6602;58.934;11.166;2023-02-22T09:14:44;1.53;;;1.10;;
13071;SDS011;6602;58.934;11.166;2023-02-22T09:20:04;1.20;;;0.90;;
13071;SDS011;6602;58.934;11.166;2023-02-22T09:25:26;2.50;;;1.17;;
13071;SDS011;6602;58.934;11.166;2023-02-22T09:30:31;2.97;;;0.90;;
13071;SDS011;6602;58.934;11.166;2023-02-22T09:35:53;2.50;;;1.23;;
13071;SDS011;6602;58.934;11.166;2023-02-22T09:41:14;0.90;;;0.80;;
13071;SDS011;6602;58.934;11.166;2023-02-22T09:46:50;1.27;;;0.80;;
13071;SDS011;6602;58.934;11.166;2023-02-22T09:52:16;0.80;;;0.80;;
13071;SDS011;6602;58.934;11.166;2023-02-22T09:57:45;1.20;;;0.97;;
13071;SDS011;6602;58.934;11.166;2023-02-22T10:08:01;2.40;;;2.20;;
13071;SDS011;6602;58.934;11.166;2023-02-22T10:13:21;1.37;;;0.97;;
13071;SDS011;6602;58.934;11.166;2023-02-22T10:18:36;1.60;;;1.23;;
13071;SDS011;6602;58.934;11.166;2023-02-22T10:35:39;1.60;;;1.27;;
13071;SDS011;6602;58.934;11.166;2023-02-22T10:41:02;1.67;;;1.23;;
13071;SDS011;6602;58.934;11.166;2023-02-22T10:46:30;3.67;;;1.13;;
13071;SDS011;6602;58.934;11.166;2023-02-22T10:51:59;7.53;;;3.57;;
13071;SDS011;6602;58.934;11.166;2023-02-22T10:57:05;1.03;;;0.97;;
13071;SDS011;6602;58.934;11.166;2023-02-22T11:07:37;1.77;;;0.97;;
13071;SDS011;6602;58.934;11.166;2023-02-22T11:13:00;1.97;;;1.13;;
13071;SDS011;6602;58.934;11.166;2023-02-22T11:18:38;3.53;;;1.07;;
13071;SDS011;6602;58.934;11.166;2023-02-22T11:23:41;3.03;;;1.40;;
13071;SDS011;6602;58.934;11.166;2023-02-22T11:28:43;2.17;;;1.40;;
13071;SDS011;6602;58.934;11.166;2023-02-22T11:33:53;2.50;;;1.40;;
13071;SDS011;6602;58.934;11.166;2023-02-22T11:39:22;1.17;;;1.07;;
13071;SDS011;6602;58.934;11.166;2023-02-22T11:44:37;1.40;;;1.10;;
13071;SDS011;6602;58.934;11.166;2023-02-22T11:50:01;2.50;;;1.23;;
13071;SDS011;6602;58.934;11.166;2023-02-22T11:55:38;2.00;;;1.40;;
13071;SDS011;6602;58.934;11.166;2023-02-22T12:00:59;1.87;;;1.20;;
13071;SDS011;6602;58.934;11.166;2023-02-22T12:34:28;2.40;;;1.50;;
13071;SDS011;6602;58.934;11.166;2023-02-22T12:39:58;2.13;;;1.80;;
13071;SDS011;6602;58.934;11.166;2023-02-22T12:56:25;1.67;;;1.13;;
13071;SDS011;6602;58.934;11.166;2023-02-22T13:02:16;1.80;;;1.33;;
13071;SDS011;6602;58.934;11.166;2023-02-22T13:13:13;2.20;;;1.07;;
13071;SDS011;6602;58.934;11.166;2023-02-22T13:18:45;4.03;;;1.30;;
13071;SDS011;6602;58.934;11.166;2023-02-22T13:24:34;1.80;;;1.27;;
13071;SDS011;6602;58.934;11.166;2023-02-22T13:30:02;2.00;;;1.07;;
13071;SDS011;6602;58.934;11.166;2023-02-22T13:35:16;1.77;;;1.20;;
13071;SDS011;6602;58.934;11.166;2023-02-22T13:51:51;2.77;;;1.30;;
13071;SDS011;6602;58.934;11.166;2023-02-22T13:57:02;2.97;;;1.33;;
13071;SDS011;6602;58.934;11.166;2023-02-22T14:19:16;1.80;;;1.07;;
13071;SDS011;6602;58.934;11.166;2023-02-22T14:24:25;3.77;;;1.00;;
13071;SDS011;6602;58.934;11.166;2023-02-22T14:29:54;2.87;;;1.23;;
13071;SDS011;6602;58.934;11.166;2023-02-22T14:35:18;2.57;;;1.30;;
13071;SDS011;6602;58.934;11.166;2023-02-22T14:40:40;1.87;;;1.27;;
13071;SDS011;6602;58.934;11.166;2023-02-22T14:45:53;1.97;;;1.23;;
13071;SDS011;6602;58.934;11.166;2023-02-22T14:51:30;2.17;;;1.40;;
13071;SDS011;6602;58.934;11.166;2023-02-22T14:57:22;1.67;;;1.20;;
13071;SDS011;6602;58.934;11.166;2023-02-22T15:02:40;3.90;;;1.43;;
13071;SDS011;6602;58.934;11.166;2023-02-22T15:08:00;6.17;;;1.30;;
13071;SDS011;6602;58.934;11.166;2023-02-22T15:13:05;4.07;;;1.50;;
13071;SDS011;6602;58.934;11.166;2023-02-22T15:18:34;1.90;;;1.40;;
13071;SDS011;6602;58.934;11.166;2023-02-22T15:28:53;2.20;;;1.23;;
13071;SDS011;6602;58.934;11.166;2023-02-22T15:39:37;1.53;;;1.20;;
13071;SDS011;6602;58.934;11.166;2023-02-22T15:44:48;2.90;;;1.40;;
13071;SDS011;6602;58.934;11.166;2023-02-22T15:55:57;3.27;;;1.20;;
13071;SDS011;6602;58.934;11.166;2023-02-22T16:01:08;2.27;;;1.27;;
13071;SDS011;6602;58.934;11.166;2023-02-22T16:17:34;5.20;;;1.37;;
13071;SDS011;6602;58.934;11.166;2023-02-22T16:22:56;1.50;;;1.10;;
13071;SDS011;6602;58.934;11.166;2023-02-22T16:33:52;5.07;;;1.20;;
13071;SDS011;6602;58.934;11.166;2023-02-22T16:44:39;2.53;;;1.50;;
13071;SDS011;6602;58.934;11.166;2023-02-22T16:49:59;2.40;;;1.37;;
13071;SDS011;6602;58.934;11.166;2023-02-22T16:55:22;1.37;;;1.20;;
13071;SDS011;6602;58.934;11.166;2023-02-22T17:00:42;3.20;;;1.33;;
13071;SDS011;6602;58.934;11.166;2023-02-22T17:06:03;1.90;;;1.20;;
13071;SDS011;6602;58.934;11.166;2023-02-22T17:11:08;3.10;;;1.43;;
13071;SDS011;6602;58.934;11.166;2023-02-22T17:16:14;2.30;;;1.10;;
13071;SDS011;6602;58.934;11.166;2023-02-22T17:21:36;3.10;;;1.33;;
13071;SDS011;6602;58.934;11.166;2023-02-22T17:26:40;2.90;;;0.97;;
13071;SDS011;6602;58.934;11.166;2023-02-22T17:31:47;2.03;;;1.40;;
13071;SDS011;6602;58.934;11.166;2023-02-22T17:36:50;1.37;;;1.10;;
13071;SDS011;6602;58.934;11.166;2023-02-22T17:42:00;1.97;;;1.30;;
13071;SDS011;6602;58.934;11.166;2023-02-22T17:47:19;3.70;;;1.10;;
13071;SDS011;6602;58.934;11.166;2023-02-22T17:52:20;2.10;;;1.13;;
13071;SDS011;6602;58.934;11.166;2023-02-22T17:57:25;1.27;;;0.93;;
13071;SDS011;6602;58.934;11.166;2023-02-22T18:02:28;1.60;;;1.10;;
13071;SDS011;6602;58.934;11.166;2023-02-22T18:07:39;1.40;;;1.17;;
13071;SDS011;6602;58.934;11.166;2023-02-22T18:12:40;1.57;;;0.80;;
13071;SDS011;6602;58.934;11.166;2023-02-22T18:17:55;1.37;;;1.10;;
13071;SDS011;6602;58.934;11.166;2023-02-22T18:23:02;1.50;;;1.10;;
13071;SDS011;6602;58.934;11.166;2023-02-22T18:28:11;2.57;;;1.20;;
13071;SDS011;6602;58.934;11.166;2023-02-22T18:33:15;1.57;;;0.90;;
13071;SDS011;6602;58.934;11.166;2023-02-22T18:38:19;1.93;;;1.23;;
13071;SDS011;6602;58.934;11.166;2023-02-22T18:43:26;1.47;;;1.13;;
13071;SDS011;6602;58.934;11.166;2023-02-22T18:48:28;1.30;;;1.20;;
13071;SDS011;6602;58.934;11.166;2023-02-22T18:53:37;1.93;;;1.13;;
13071;SDS011;6602;58.934;11.166;2023-02-22T18:58:40;3.87;;;1.23;;
13071;SDS011;6602;58.934;11.166;2023-02-22T19:03:42;2.93;;;1.20;;
13071;SDS011;6602;58.934;11.166;2023-02-22T19:08:46;3.90;;;1.30;;
13071;SDS011;6602;58.934;11.166;2023-02-22T19:13:52;2.63;;;1.30;;
13071;SDS011;6602;58.934;11.166;2023-02-22T19:19:17;1.80;;;1.30;;
13071;SDS011;6602;58.934;11.166;2023-02-22T19:24:23;1.53;;;1.10;;
13071;SDS011;6602;58.934;11.166;2023-02-22T19:29:27;1.70;;;1.17;;
13071;SDS011;6602;58.934;11.166;2023-02-22T19:34:51;1.60;;;1.40;;
13071;SDS011;6602;58.934;11.166;2023-02-22T19:40:04;3.27;;;1.23;;
13071;SDS011;6602;58.934;11.166;2023-02-22T19:45:12;1.17;;;0.97;;
13071;SDS011;6602;58.934;11.166;2023-02-22T19:50:32;2.87;;;1.20;;
13071;SDS011;6602;58.934;11.166;2023-02-22T19:55:51;2.30;;;1.20;;
13071;SDS011;6602;58.934;11.166;2023-02-22T20:01:29;1.87;;;1.20;;
13071;SDS011;6602;58.934;11.166;2023-02-22T20:06:51;2.43;;;1.20;;
13071;SDS011;6602;58.934;11.166;2023-02-22T20:12:13;1.23;;;0.93;;
13071;SDS011;6602;58.934;11.166;2023-02-22T20:17:32;1.20;;;1.10;;
13071;SDS011;6602;58.934;11.166;2023-02-22T20:22:52;2.13;;;1.30;;
13071;SDS011;6602;58.934;11.166;2023-02-22T20:28:12;2.60;;;1.33;;
13071;SDS011;6602;58.934;11.166;2023-02-22T20:33:33;2.17;;;1.20;;
13071;SDS011;6602;58.934;11.166;2023-02-22T20:38:53;3.70;;;1.10;;
13071;SDS011;6602;58.934;11.166;2023-02-22T20:44:14;2.30;;;1.30;;
13071;SDS011;6602;58.934;11.166;2023-02-22T20:49:36;3.47;;;1.10;;
13071;SDS011;6602;58.934;11.166;2023-02-22T20:54:57;2.20;;;1.47;;
13071;SDS011;6602;58.934;11.166;2023-02-22T21:00:06;3.63;;;1.60;;
13071;SDS011;6602;58.934;11.166;2023-02-22T21:05:28;2.90;;;1.43;;
13071;SDS011;6602;58.934;11.166;2023-02-22T21:10:47;2.67;;;1.30;;
13071;SDS011;6602;58.934;11.166;2023-02-22T21:16:06;2.37;;;1.50;;
13071;SDS011;6602;58.934;11.166;2023-02-22T21:21:28;1.30;;;1.20;;
13071;SDS011;6602;58.934;11.166;2023-02-22T21:26:33;2.37;;;1.43;;
13071;SDS011;6602;58.934;11.166;2023-02-22T21:31:42;2.83;;;1.47;;
13071;SDS011;6602;58.934;11.166;2023-02-22T21:36:46;3.17;;;2.03;;
13071;SDS011;6602;58.934;11.166;2023-02-22T21:41:55;2.10;;;1.60;;
13071;SDS011;6602;58.934;11.166;2023-02-22T21:47:07;4.07;;;1.50;;
13071;SDS011;6602;58.934;11.166;2023-02-22T21:52:11;3.80;;;1.80;;
13071;SDS011;6602;58.934;11.166;2023-02-22T21:57:30;3.17;;;1.83;;
13071;SDS011;6602;58.934;11.166;2023-02-22T22:02:37;4.73;;;1.80;;
13071;SDS011;6602;58.934;11.166;2023-02-22T22:07:42;4.00;;;2.00;;
13071;SDS011;6602;58.934;11.166;2023-02-22T22:12:44;3.37;;;1.77;;
13071;SDS011;6602;58.934;11.166;2023-02-22T22:18:08;3.87;;;1.63;;
13071;SDS011;6602;58.934;11.166;2023-02-22T22:23:15;3.90;;;1.77;;
13071;SDS011;6602;58.934;11.166;2023-02-22T22:28:22;2.77;;;2.17;;
13071;SDS011;6602;58.934;11.166;2023-02-22T22:33:46;1.53;;;1.43;;
13071;SDS011;6602;58.934;11.166;2023-02-22T22:38:47;3.47;;;2.30;;
13071;SDS011;6602;58.934;11.166;2023-02-22T22:43:58;2.40;;;2.00;;
13071;SDS011;6602;58.934;11.166;2023-02-22T22:49:07;3.20;;;2.10;;
13071;SDS011;6602;58.934;11.166;2023-02-22T22:54:25;3.37;;;2.10;;
13071;SDS011;6602;58.934;11.166;2023-02-22T22:59:47;3.73;;;2.07;;
13071;SDS011;6602;58.934;11.166;2023-02-22T23:05:01;2.93;;;1.73;;
13071;SDS011;6602;58.934;11.166;2023-02-22T23:10:17;4.27;;;2.10;;
13071;SDS011;6602;58.934;11.166;2023-02-22T23:15:18;5.30;;;2.67;;
13071;SDS011;6602;58.934;11.166;2023-02-22T23:20:31;2.77;;;2.00;;
13071;SDS011;6602;58.934;11.166;2023-02-22T23:26:02;4.13;;;1.93;;
13071;SDS011;6602;58.934;11.166;2023-02-22T23:31:16;3.27;;;2.13;;
13071;SDS011;6602;58.934;11.166;2023-02-22T23:36:20;3.33;;;2.27;;
13071;SDS011;6602;58.934;11.166;2023-02-22T23:41:25;3.27;;;2.13;;
13071;SDS011;6602;58.934;11.166;2023-02-22T23:46:31;2.60;;;2.17;;
13071;SDS011;6602;58.934;11.166;2023-02-22T23:51:35;6.67;;;2.50;;
13071;SDS011;6602;58.934;11.166;2023-02-22T23:56:56;4.03;;;2.10;;
